createdAt,value
2022-11-13T00:01:26.552Z,80.56
2022-11-13T00:04:13.444Z,80.59
2022-11-13T00:07:00.008Z,80.72
2022-11-13T00:09:47.026Z,80.18
2022-11-13T00:12:33.565Z,80.28
2022-11-13T00:15:20.472Z,80.60
2022-11-13T00:18:07.399Z,80.78
2022-11-13T00:20:54.304Z,80.90
2022-11-13T00:23:41.118Z,81.61
2022-11-13T00:26:30.427Z,82.13
2022-11-13T00:29:17.507Z,82.16
2022-11-13T00:32:04.962Z,81.87
2022-11-13T00:34:51.542Z,82.06
2022-11-13T00:37:38.040Z,82.01
2022-11-13T00:40:24.959Z,82.25
2022-11-13T00:43:11.425Z,82.32
2022-11-13T00:45:58.884Z,82.81
2022-11-13T00:48:45.592Z,83.38
2022-11-13T00:51:33.132Z,84.07
2022-11-13T00:54:19.627Z,83.97
2022-11-13T00:57:06.035Z,84.02
2022-11-13T00:59:53.135Z,83.66
2022-11-13T01:02:39.950Z,83.33
2022-11-13T01:05:28.018Z,82.83
2022-11-13T01:08:15.948Z,83.15
2022-11-13T01:11:09.066Z,83.46
2022-11-13T01:13:56.737Z,83.32
2022-11-13T01:16:43.785Z,83.47
2022-11-13T01:19:30.359Z,83.11
2022-11-13T01:22:17.171Z,82.91
2022-11-13T01:25:05.165Z,82.40
2022-11-13T01:27:51.907Z,82.14
2022-11-13T01:30:39.440Z,81.71
2022-11-13T01:33:26.454Z,81.45
2022-11-13T01:36:16.760Z,81.55
2022-11-13T01:39:03.346Z,81.60
2022-11-13T01:41:49.656Z,81.58
2022-11-13T01:44:57.350Z,81.57
2022-11-13T01:47:44.571Z,81.31
2022-11-13T01:50:31.279Z,81.16
2022-11-13T01:53:18.424Z,81.55
2022-11-13T01:56:06.547Z,81.13
2022-11-13T01:59:14.754Z,80.76
2022-11-13T02:02:02.242Z,80.52
2022-11-13T02:04:49.099Z,80.27
2022-11-13T02:07:36.210Z,80.47
2022-11-13T02:10:23.229Z,80.52
2022-11-13T02:13:10.963Z,80.75
2022-11-13T02:15:58.086Z,81.30
2022-11-13T02:18:45.360Z,81.59
2022-11-13T02:22:09.084Z,81.76
2022-11-13T02:24:58.477Z,82.32
2022-11-13T02:27:47.947Z,81.84
2022-11-13T02:30:36.070Z,82.04
2022-11-13T02:33:32.200Z,82.55
2022-11-13T02:36:21.812Z,82.86
2022-11-13T02:39:11.352Z,83.00
2022-11-13T02:41:58.064Z,82.66
2022-11-13T02:44:44.673Z,82.93
2022-11-13T02:47:31.165Z,82.94
2022-11-13T02:50:18.696Z,82.66
2022-11-13T02:53:06.703Z,82.40
2022-11-13T02:55:53.451Z,82.46
2022-11-13T02:58:39.949Z,82.77
2022-11-13T03:01:27.000Z,82.57
2022-11-13T03:04:13.569Z,82.33
2022-11-13T03:07:00.292Z,82.45
2022-11-13T03:09:47.091Z,82.61
2022-11-13T03:12:34.312Z,82.24
2022-11-13T03:15:21.125Z,81.81
2022-11-13T03:18:08.137Z,82.06
2022-11-13T03:20:54.702Z,81.91
2022-11-13T03:23:45.054Z,81.57
2022-11-13T03:26:31.638Z,81.48
2022-11-13T03:29:18.050Z,81.26
2022-11-13T03:32:04.681Z,80.86
2022-11-13T03:34:51.053Z,80.61
2022-11-13T03:37:37.861Z,80.19
2022-11-13T03:40:24.677Z,80.01
2022-11-13T03:43:11.489Z,80.09
2022-11-13T03:45:58.503Z,80.03
2022-11-13T03:48:45.535Z,80.02
2022-11-13T03:51:32.229Z,79.53
2022-11-13T03:54:18.578Z,79.54
2022-11-13T03:57:05.343Z,78.93
2022-11-13T03:59:51.744Z,78.72
2022-11-13T04:02:38.249Z,78.85
2022-11-13T04:05:25.057Z,78.86
2022-11-13T04:08:11.408Z,78.96
2022-11-13T04:11:09.555Z,79.12
2022-11-13T04:13:56.034Z,79.22
2022-11-13T04:16:42.750Z,79.83
2022-11-13T04:19:29.349Z,79.76
2022-11-13T04:22:16.060Z,79.65
2022-11-13T04:25:02.977Z,80.17
2022-11-13T04:27:50.294Z,80.00
2022-11-13T04:30:37.320Z,79.94
2022-11-13T04:33:23.563Z,79.92
2022-11-13T04:36:10.236Z,79.90
2022-11-13T04:38:56.624Z,79.84
2022-11-13T04:42:02.173Z,80.13
2022-11-13T04:44:48.776Z,80.77
2022-11-13T04:47:35.585Z,80.15
2022-11-13T04:50:23.322Z,80.28
2022-11-13T04:53:09.910Z,80.37
2022-11-13T04:55:56.845Z,80.23
2022-11-13T04:58:43.658Z,80.77
2022-11-13T05:01:30.215Z,80.70
2022-11-13T05:04:17.581Z,80.45
2022-11-13T05:07:04.595Z,80.72
2022-11-13T05:09:51.208Z,80.85
2022-11-13T05:12:38.012Z,81.44
2022-11-13T05:15:25.015Z,81.48
2022-11-13T05:18:11.437Z,81.17
2022-11-13T05:20:58.241Z,81.49
2022-11-13T05:23:44.707Z,81.65
2022-11-13T05:26:31.968Z,81.54
2022-11-13T05:29:18.780Z,80.94
2022-11-13T05:32:05.508Z,81.14
2022-11-13T05:34:52.197Z,81.57
2022-11-13T05:37:38.910Z,81.91
2022-11-13T05:40:25.361Z,81.83
2022-11-13T05:43:12.061Z,81.66
2022-11-13T05:46:02.313Z,82.00
2022-11-13T05:48:54.616Z,82.14
2022-11-13T05:51:41.458Z,82.00
2022-11-13T05:54:28.081Z,81.66
2022-11-13T05:57:14.788Z,81.43
2022-11-13T06:00:02.008Z,81.37
2022-11-13T06:02:48.715Z,81.45
2022-11-13T06:05:36.149Z,81.13
2022-11-13T06:08:22.954Z,81.13
2022-11-13T06:11:15.192Z,81.06
2022-11-13T06:14:02.542Z,80.62
2022-11-13T06:16:49.233Z,80.48
2022-11-13T06:19:35.724Z,80.19
2022-11-13T06:22:22.636Z,80.09
2022-11-13T06:25:09.646Z,79.72
2022-11-13T06:27:56.048Z,79.43
2022-11-13T06:30:42.755Z,79.23
2022-11-13T06:33:29.033Z,79.34
2022-11-13T06:36:21.886Z,78.81
2022-11-13T06:39:10.206Z,78.36
2022-11-13T06:41:57.278Z,78.32
2022-11-13T06:44:44.215Z,78.40
2022-11-13T06:47:30.756Z,77.92
2022-11-13T06:50:17.358Z,78.11
2022-11-13T06:53:03.701Z,78.05
2022-11-13T06:55:50.513Z,78.01
2022-11-13T06:58:38.248Z,77.82
2022-11-13T07:01:26.559Z,78.78
2022-11-13T07:04:14.125Z,78.81
2022-11-13T07:07:01.084Z,77.94
2022-11-13T07:09:47.743Z,78.49
2022-11-13T07:12:34.859Z,77.92
2022-11-13T07:15:21.572Z,78.54
2022-11-13T07:18:08.583Z,78.66
2022-11-13T07:20:54.991Z,78.93
2022-11-13T07:23:43.680Z,79.28
2022-11-13T07:26:30.868Z,79.48
2022-11-13T07:29:17.575Z,79.38
2022-11-13T07:32:04.375Z,79.26
2022-11-13T07:34:50.783Z,79.35
2022-11-13T07:37:37.595Z,78.93
2022-11-13T07:40:24.925Z,78.51
2022-11-13T07:43:11.697Z,78.71
2022-11-13T07:45:59.698Z,78.36
2022-11-13T07:48:46.220Z,78.64
2022-11-13T07:51:32.783Z,78.80
2022-11-13T07:54:19.796Z,78.68
2022-11-13T07:57:06.071Z,78.43
2022-11-13T07:59:52.914Z,78.91
2022-11-13T08:02:39.611Z,78.94
2022-11-13T08:05:26.428Z,78.86
2022-11-13T08:08:13.858Z,79.63
2022-11-13T08:11:06.218Z,80.07
2022-11-13T08:13:52.802Z,79.75
2022-11-13T08:16:39.197Z,79.36
2022-11-13T08:19:25.599Z,79.85
2022-11-13T08:22:12.320Z,79.63
2022-11-13T08:24:58.996Z,79.71
2022-11-13T08:27:45.898Z,79.29
2022-11-13T08:30:33.052Z,78.78
2022-11-13T08:33:19.660Z,78.48
2022-11-13T08:36:06.789Z,78.53
2022-11-13T08:38:53.386Z,78.51
2022-11-13T08:41:39.891Z,78.17
2022-11-13T08:44:26.390Z,78.16
2022-11-13T08:47:13.771Z,78.23
2022-11-13T08:50:00.220Z,77.69
2022-11-13T08:52:47.136Z,77.12
2022-11-13T08:55:34.365Z,76.90
2022-11-13T08:58:21.374Z,75.83
2022-11-13T09:01:07.871Z,75.38
2022-11-13T09:03:54.818Z,74.87
2022-11-13T09:06:41.789Z,74.54
2022-11-13T09:09:28.817Z,74.39
2022-11-13T09:12:15.954Z,74.01
2022-11-13T09:15:02.646Z,73.65
2022-11-13T09:17:49.052Z,73.03
2022-11-13T09:20:35.786Z,72.85
2022-11-13T09:23:22.200Z,73.17
2022-11-13T09:26:08.788Z,73.60
2022-11-13T09:28:55.681Z,73.06
2022-11-13T09:31:42.491Z,74.32
2022-11-13T09:34:30.015Z,75.91
2022-11-13T09:37:17.134Z,77.32
2022-11-13T09:40:04.557Z,77.19
2022-11-13T09:42:51.164Z,76.86
2022-11-13T09:45:41.258Z,77.71
2022-11-13T09:48:38.966Z,76.73
2022-11-13T09:51:27.675Z,75.89
2022-11-13T09:54:15.511Z,76.12
2022-11-13T09:57:29.974Z,76.15
2022-11-13T10:00:21.879Z,76.33
2022-11-13T10:03:46.311Z,76.32
2022-11-13T10:06:44.829Z,76.30
2022-11-13T10:09:52.444Z,76.60
2022-11-13T10:12:40.115Z,76.97
2022-11-13T10:15:27.269Z,76.65
2022-11-13T10:18:29.889Z,76.00
2022-11-13T10:21:25.741Z,75.84
2022-11-13T10:24:17.901Z,76.02
2022-11-13T10:27:09.947Z,75.69
2022-11-13T10:29:57.115Z,75.91
2022-11-13T10:32:45.370Z,76.69
2022-11-13T10:36:02.902Z,76.63
2022-11-13T10:38:58.722Z,76.97
2022-11-13T10:41:54.578Z,77.40
2022-11-13T10:44:41.259Z,77.85
2022-11-13T10:48:02.139Z,77.89
2022-11-13T10:50:40.193Z,78.03
2022-11-13T10:53:33.741Z,77.64
2022-11-13T10:56:29.768Z,77.40
2022-11-13T10:59:19.787Z,77.43
2022-11-13T11:02:12.198Z,77.24
2022-11-13T11:05:07.224Z,77.18
2022-11-13T11:07:56.105Z,76.31
2022-11-13T11:11:03.155Z,75.08
2022-11-13T11:13:49.963Z,73.58
2022-11-13T11:16:37.183Z,72.00
2022-11-13T11:19:29.183Z,70.99
2022-11-13T11:22:22.200Z,67.97
2022-11-13T11:25:22.398Z,65.44
2022-11-13T11:28:17.433Z,63.68
2022-11-13T11:31:29.294Z,63.44
2022-11-13T11:34:16.229Z,63.17
2022-11-13T11:37:14.692Z,62.84
2022-11-13T11:40:27.412Z,62.40
2022-11-13T11:43:27.842Z,62.32
2022-11-13T11:46:18.647Z,61.91
2022-11-13T11:49:05.233Z,61.53
2022-11-13T11:52:10.496Z,61.53
2022-11-13T11:55:15.129Z,60.28
2022-11-13T11:58:13.936Z,58.71
2022-11-13T12:01:17.628Z,56.47
2022-11-13T12:04:23.192Z,54.82
2022-11-13T12:07:48.087Z,52.39
2022-11-13T12:10:40.746Z,50.78
2022-11-13T12:13:33.613Z,49.56
2022-11-13T12:16:49.019Z,48.76
2022-11-13T12:20:01.796Z,47.30
2022-11-13T12:23:02.525Z,45.54
2022-11-13T12:26:02.048Z,43.90
2022-11-13T12:29:00.909Z,42.96
2022-11-13T12:32:06.836Z,41.87
2022-11-13T12:35:01.130Z,41.87
2022-11-13T12:38:18.308Z,42.29
2022-11-13T12:41:26.719Z,43.50
2022-11-13T12:44:16.696Z,43.86
2022-11-13T12:47:04.127Z,43.77
2022-11-13T12:50:03.230Z,43.05
2022-11-13T12:53:04.987Z,43.83
2022-11-13T12:56:00.521Z,44.39
2022-11-13T12:59:30.903Z,45.06
2022-11-13T13:02:46.020Z,45.24
2022-11-13T13:05:49.926Z,45.18
2022-11-13T13:08:54.341Z,46.11
2022-11-13T13:11:43.405Z,46.55
2022-11-13T13:15:08.820Z,45.82
2022-11-13T13:18:21.757Z,46.12
2022-11-13T13:21:14.380Z,47.00
2022-11-13T13:24:32.442Z,47.93
2022-11-13T13:27:25.192Z,49.03
2022-11-13T13:30:26.371Z,50.20
2022-11-13T13:33:15.507Z,52.85
2022-11-13T13:36:15.831Z,55.36
2022-11-13T13:39:39.039Z,58.10
2022-11-13T13:42:56.122Z,60.00
2022-11-13T13:46:10.784Z,62.23
2022-11-13T13:49:05.168Z,63.14
2022-11-13T13:51:54.955Z,64.06
2022-11-13T13:54:43.400Z,65.40
2022-11-13T13:57:30.620Z,67.34
2022-11-13T14:00:20.743Z,69.21
2022-11-13T14:03:20.480Z,70.63
2022-11-13T14:06:33.247Z,72.56
2022-11-13T14:09:24.732Z,73.92
2022-11-13T14:12:22.423Z,75.08
2022-11-13T14:15:23.276Z,75.47
2022-11-13T14:18:17.103Z,76.85
2022-11-13T14:21:16.151Z,77.10
2022-11-13T14:24:03.875Z,77.47
2022-11-13T14:26:54.072Z,78.79
2022-11-13T14:29:49.996Z,79.50
2022-11-13T14:32:45.649Z,80.45
2022-11-13T14:35:32.627Z,81.45
2022-11-13T14:38:25.927Z,82.21
2022-11-13T14:41:20.077Z,82.33
2022-11-13T14:44:06.683Z,82.87
2022-11-13T14:47:00.725Z,83.57
2022-11-13T14:49:47.673Z,83.66
2022-11-13T14:52:34.281Z,83.74
2022-11-13T14:55:23.693Z,84.13
2022-11-13T14:58:14.007Z,83.90
2022-11-13T15:01:20.930Z,83.81
2022-11-13T15:04:07.741Z,84.18
2022-11-13T15:06:56.654Z,84.92
2022-11-13T15:09:43.518Z,85.97
2022-11-13T15:12:30.129Z,85.87
2022-11-13T15:15:23.996Z,85.50
2022-11-13T15:18:19.000Z,85.73
2022-11-13T15:21:06.631Z,85.10
2022-11-13T15:23:53.243Z,84.76
2022-11-13T15:26:40.458Z,84.92
2022-11-13T15:29:27.171Z,84.81
2022-11-13T15:32:15.424Z,84.83
2022-11-13T15:35:02.331Z,85.28
2022-11-13T15:37:49.039Z,85.52
2022-11-13T15:40:36.260Z,85.19
2022-11-13T15:43:23.000Z,83.36
2022-11-13T15:46:18.286Z,83.79
2022-11-13T15:49:04.571Z,85.97
2022-11-13T15:51:51.025Z,85.69
2022-11-13T15:54:39.020Z,87.14
2022-11-13T15:57:28.610Z,87.42
2022-11-13T16:00:17.400Z,87.20
2022-11-13T16:03:11.135Z,86.82
2022-11-13T16:06:01.318Z,87.07
2022-11-13T16:08:48.949Z,87.00
2022-11-13T16:11:35.858Z,86.67
2022-11-13T16:14:25.085Z,86.27
2022-11-13T16:17:16.626Z,86.70
2022-11-13T16:20:04.708Z,86.68
2022-11-13T16:22:52.220Z,86.12
2022-11-13T16:25:38.926Z,86.47
2022-11-13T16:28:25.534Z,86.09
2022-11-13T16:31:12.037Z,85.41
2022-11-13T16:33:58.543Z,84.57
2022-11-13T16:36:46.277Z,84.64
2022-11-13T16:39:33.031Z,85.72
2022-11-13T16:42:19.313Z,86.07
2022-11-13T16:45:06.610Z,85.88
2022-11-13T16:47:53.415Z,85.23
2022-11-13T16:50:40.839Z,85.55
2022-11-13T16:53:27.954Z,85.94
2022-11-13T16:56:28.185Z,86.55
2022-11-13T16:59:15.811Z,86.48
2022-11-13T17:02:02.392Z,87.33
2022-11-13T17:04:49.436Z,87.48
2022-11-13T17:07:36.298Z,87.04
2022-11-13T17:10:32.333Z,86.76
2022-11-13T17:13:19.907Z,86.41
2022-11-13T17:16:06.825Z,85.89
2022-11-13T17:18:54.454Z,86.04
2022-11-13T17:21:44.244Z,86.46
2022-11-13T17:24:31.087Z,86.14
2022-11-13T17:27:18.263Z,86.30
2022-11-13T17:30:05.463Z,86.36
2022-11-13T17:32:51.988Z,86.30
2022-11-13T17:35:38.879Z,86.58
2022-11-13T17:38:26.468Z,86.19
2022-11-13T17:41:16.387Z,85.73
2022-11-13T17:44:03.735Z,86.01
2022-11-13T17:46:50.037Z,85.52
2022-11-13T17:49:36.969Z,86.21
2022-11-13T17:52:23.151Z,86.22
2022-11-13T17:55:13.280Z,85.16
2022-11-13T17:58:02.918Z,84.89
2022-11-13T18:00:50.645Z,85.40
2022-11-13T18:03:38.689Z,86.19
2022-11-13T18:06:25.600Z,86.24
2022-11-13T18:09:12.002Z,86.56
2022-11-13T18:11:58.720Z,86.59
2022-11-13T18:14:46.136Z,86.49
2022-11-13T18:17:32.641Z,86.66
2022-11-13T18:20:19.350Z,86.02
2022-11-13T18:23:06.157Z,85.60
2022-11-13T18:25:53.078Z,85.39
2022-11-13T18:28:40.397Z,85.57
2022-11-13T18:31:28.038Z,86.22
2022-11-13T18:34:16.869Z,86.31
2022-11-13T18:37:03.290Z,86.56
2022-11-13T18:39:49.984Z,86.26
2022-11-13T18:42:36.707Z,85.98
2022-11-13T18:45:23.412Z,86.04
2022-11-13T18:48:10.022Z,86.06
2022-11-13T18:51:08.079Z,85.75
2022-11-13T18:53:55.627Z,85.43
2022-11-13T18:56:43.087Z,85.66
2022-11-13T18:59:29.556Z,85.80
2022-11-13T19:02:16.325Z,85.51
2022-11-13T19:05:03.182Z,85.00
2022-11-13T19:07:49.887Z,84.58
2022-11-13T19:10:36.700Z,84.14
2022-11-13T19:13:23.508Z,84.55
2022-11-13T19:16:19.842Z,84.48
2022-11-13T19:19:26.837Z,83.66
2022-11-13T19:22:13.538Z,84.23
2022-11-13T19:25:00.565Z,83.96
2022-11-13T19:27:47.364Z,83.42
2022-11-13T19:30:33.969Z,83.38
2022-11-13T19:33:25.697Z,83.28
2022-11-13T19:36:17.822Z,82.67
2022-11-13T19:39:05.469Z,82.96
2022-11-13T19:41:52.287Z,83.19
2022-11-13T19:44:38.789Z,83.42
2022-11-13T19:47:25.282Z,83.57
2022-11-13T19:50:12.813Z,83.92
2022-11-13T19:52:59.425Z,83.89
2022-11-13T19:55:55.221Z,84.82
2022-11-13T19:58:46.672Z,83.95
2022-11-13T20:01:34.036Z,83.52
2022-11-13T20:04:21.099Z,83.46
2022-11-13T20:07:07.972Z,83.85
2022-11-13T20:09:55.040Z,84.11
2022-11-13T20:12:42.068Z,84.06
2022-11-13T20:15:29.276Z,84.43
2022-11-13T20:18:15.780Z,84.66
2022-11-13T20:21:02.490Z,84.16
2022-11-13T20:23:49.406Z,83.80
2022-11-13T20:26:36.418Z,84.08
2022-11-13T20:29:23.340Z,83.54
2022-11-13T20:32:10.656Z,83.50
2022-11-13T20:34:57.575Z,84.48
2022-11-13T20:37:44.593Z,85.49
2022-11-13T20:40:31.192Z,85.63
2022-11-13T20:43:18.195Z,85.66
2022-11-13T20:46:10.290Z,85.39
2022-11-13T20:48:57.553Z,85.12
2022-11-13T20:51:44.377Z,84.92
2022-11-13T20:54:30.983Z,84.41
2022-11-13T20:57:19.524Z,84.25
2022-11-13T21:00:07.257Z,84.22
2022-11-13T21:02:53.971Z,83.89
2022-11-13T21:05:40.500Z,83.72
2022-11-13T21:08:27.485Z,83.69
2022-11-13T21:11:19.026Z,83.86
2022-11-13T21:14:05.921Z,83.09
2022-11-13T21:16:52.422Z,82.67
2022-11-13T21:19:39.236Z,82.44
2022-11-13T21:22:25.637Z,82.15
2022-11-13T21:25:12.352Z,82.65
2022-11-13T21:27:58.852Z,82.98
2022-11-13T21:30:45.353Z,83.72
2022-11-13T21:33:39.175Z,83.69
2022-11-13T21:36:28.505Z,84.91
2022-11-13T21:39:15.715Z,84.54
2022-11-13T21:42:02.324Z,84.20
2022-11-13T21:44:48.629Z,84.74
2022-11-13T21:47:35.344Z,85.70
2022-11-13T21:50:21.838Z,85.50
2022-11-13T21:53:08.190Z,85.02
2022-11-13T21:55:55.052Z,85.14
2022-11-13T21:58:42.170Z,85.27
2022-11-13T22:01:36.462Z,85.01
2022-11-13T22:04:25.918Z,85.00
2022-11-13T22:07:12.879Z,85.61
2022-11-13T22:10:04.146Z,85.43
2022-11-13T22:12:53.843Z,86.07
2022-11-13T22:15:40.754Z,86.49
2022-11-13T22:18:27.480Z,87.32
2022-11-13T22:21:15.813Z,86.85
2022-11-13T22:24:03.236Z,86.48
2022-11-13T22:26:49.773Z,86.68
2022-11-13T22:29:36.453Z,86.37
2022-11-13T22:32:23.155Z,85.91
2022-11-13T22:35:09.972Z,85.50
2022-11-13T22:37:56.476Z,85.11
2022-11-13T22:40:43.896Z,84.81
2022-11-13T22:43:39.114Z,84.02
2022-11-13T22:46:28.443Z,84.20
2022-11-13T22:49:14.860Z,84.69
2022-11-13T22:52:01.509Z,83.95
2022-11-13T22:54:48.296Z,83.51
2022-11-13T22:57:34.498Z,82.97
2022-11-13T23:00:21.205Z,82.59
2022-11-13T23:03:07.838Z,81.84
2022-11-13T23:05:54.724Z,81.70
2022-11-13T23:08:41.531Z,81.41
2022-11-13T23:11:39.746Z,82.07
2022-11-13T23:14:26.418Z,82.37
2022-11-13T23:17:12.900Z,82.95
2022-11-13T23:19:59.527Z,83.45
2022-11-13T23:22:46.236Z,84.26
2022-11-13T23:25:33.772Z,84.37
2022-11-13T23:28:20.243Z,83.98
2022-11-13T23:31:07.630Z,83.46
2022-11-13T23:33:54.610Z,82.83
2022-11-13T23:36:41.318Z,82.77
2022-11-13T23:39:27.823Z,82.86
2022-11-13T23:42:14.171Z,83.88
2022-11-13T23:45:00.644Z,84.14
2022-11-13T23:47:47.235Z,84.30
2022-11-13T23:50:33.948Z,84.94
2022-11-13T23:53:20.347Z,85.59
2022-11-13T23:56:07.784Z,85.58
2022-11-13T23:58:54.491Z,85.66
